Time;durP1;ratioP1;P1;durP2;ratioP2;P2;SDS_P1;SDS_P2;PMS_P1;PMS_P2;Temp;Humidity;BMP_temperature;BMP_pressure;BME280_temperature;BME280_humidity;BME280_pressure;Samples;Min_cycle;Max_cycle;Signal;HPM_P1;HPM_P2
2023/05/27 00:00:26;;;;;;;17.50;8.30;;;;;;;10.38;64.10;98572.45;106960;1277;25262;-78
2023/05/27 00:03:14;;;;;;;17.00;8.10;;;;;;;10.33;64.70;98575.18;106889;1277;22521;-78
2023/05/27 00:05:42;;;;;;;18.60;8.50;;;;;;;10.28;64.34;98575.97;106832;1277;22528;-78
2023/05/27 00:08:10;;;;;;;13.00;7.40;;;;;;;10.25;64.33;98576.77;106934;1277;25271;-78
2023/05/27 00:10:39;;;;;;;12.30;8.60;;;;;;;10.22;65.06;98578.35;106934;1277;22524;-78
2023/05/27 00:13:07;;;;;;;15.20;8.50;;;;;;;10.17;65.15;98581.06;106936;1277;25312;-78
2023/05/27 00:15:35;;;;;;;17.50;8.50;;;;;;;10.11;65.57;98579.77;106902;1277;24055;-78
2023/05/27 00:18:03;;;;;;;15.80;8.80;;;;;;;10.04;66.10;98581.85;106924;1277;24190;-78
2023/05/27 00:20:32;;;;;;;13.80;8.50;;;;;;;10.00;66.27;98578.74;106979;1277;24222;-78
2023/05/27 00:23:00;;;;;;;15.10;8.60;;;;;;;9.99;66.59;98576.11;106882;1277;24362;-78
2023/05/27 00:25:28;;;;;;;15.50;9.20;;;;;;;9.97;66.65;98577.64;106782;1277;22784;-78
2023/05/27 00:27:56;;;;;;;17.20;9.50;;;;;;;9.93;66.95;98572.44;106795;1277;22535;-78
2023/05/27 00:30:24;;;;;;;16.50;9.10;;;;;;;9.89;67.42;98572.95;106719;1277;22644;-78
2023/05/27 00:32:55;;;;;;;18.00;9.00;;;;;;;9.85;67.12;98573.29;106805;1277;22542;-78
2023/05/27 00:35:23;;;;;;;16.40;9.60;;;;;;;9.83;67.16;98568.40;106843;1277;23330;-78
2023/05/27 00:37:51;;;;;;;19.40;9.80;;;;;;;9.78;67.43;98569.02;106807;1277;22587;-78
2023/05/27 00:40:22;;;;;;;15.10;9.60;;;;;;;9.76;67.79;98564.07;106741;1277;24308;-78
2023/05/27 00:42:50;;;;;;;17.20;8.70;;;;;;;9.77;67.80;98562.94;106949;1277;24245;-79
2023/05/27 00:45:18;;;;;;;15.10;8.60;;;;;;;9.78;68.14;98565.24;106748;1277;22595;-78
2023/05/27 00:47:47;;;;;;;15.70;10.00;;;;;;;9.81;68.62;98560.27;106845;1277;22783;-79
2023/05/27 00:50:18;;;;;;;14.30;8.80;;;;;;;9.83;68.54;98562.48;106949;1277;25340;-77
2023/05/27 00:52:47;;;;;;;18.70;8.70;;;;;;;9.85;68.47;98560.30;106921;1277;25326;-77
2023/05/27 00:55:16;;;;;;;17.40;8.80;;;;;;;9.87;68.34;98564.06;107126;1277;23337;-80
2023/05/27 00:57:44;;;;;;;18.50;9.20;;;;;;;9.90;68.56;98567.71;107643;1277;24057;-80
2023/05/27 01:00:13;;;;;;;17.70;8.80;;;;;;;9.93;68.26;98569.69;107303;1277;22808;-79
2023/05/27 01:02:42;;;;;;;14.20;8.10;;;;;;;9.98;68.63;98569.17;107123;1277;24203;-78
2023/05/27 01:05:14;;;;;;;19.10;9.50;;;;;;;10.04;68.71;98571.34;107086;1262;24205;-79
2023/05/27 01:08:07;;;;;;;17.50;8.90;;;;;;;10.09;68.53;98574.44;107191;1277;22595;-78
2023/05/27 01:10:47;;;;;;;15.40;8.70;;;;;;;10.16;68.36;98574.62;106771;1278;24327;-78
2023/05/27 01:13:39;;;;;;;14.90;7.20;;;;;;;10.19;68.24;98571.42;106720;1277;22551;-78
2023/05/27 01:16:18;;;;;;;18.80;9.40;;;;;;;10.19;68.35;98569.64;107171;1277;25312;-79
2023/05/27 01:18:48;;;;;;;16.50;8.90;;;;;;;10.17;68.41;98569.42;106980;1277;22584;-79
2023/05/27 01:21:17;;;;;;;14.40;8.20;;;;;;;10.14;68.38;98574.58;106952;1277;22529;-79
2023/05/27 01:23:50;;;;;;;19.20;9.60;;;;;;;10.10;68.56;98574.33;106926;1277;22528;-79
2023/05/27 01:26:18;;;;;;;16.80;8.60;;;;;;;10.05;68.74;98570.70;106906;1277;24104;-78
2023/05/27 01:28:46;;;;;;;17.00;8.50;;;;;;;10.01;68.92;98570.77;106748;1277;23167;-79
2023/05/27 01:31:49;;;;;;;18.00;8.50;;;;;;;9.95;69.24;98569.35;106991;1277;25598;-79
2023/05/27 01:34:24;;;;;;;16.10;8.50;;;;;;;9.89;69.34;98571.21;106934;1277;22535;-79
2023/05/27 01:36:58;;;;;;;18.40;9.00;;;;;;;9.85;69.75;98571.30;106921;1277;22643;-79
2023/05/27 01:39:28;;;;;;;20.20;9.60;;;;;;;9.78;69.85;98566.92;107027;1277;22548;-78
2023/05/27 01:41:58;;;;;;;18.90;8.80;;;;;;;9.69;69.48;98570.02;107095;1277;25316;-78
2023/05/27 01:44:26;;;;;;;17.20;8.30;;;;;;;9.65;69.42;98570.20;107153;1277;22616;-79
2023/05/27 01:46:59;;;;;;;20.40;9.30;;;;;;;9.61;69.49;98571.30;107017;1277;24212;-78
2023/05/27 01:49:29;;;;;;;;;;;;;;;9.54;69.53;98570.89;106884;1277;23333;-78
2023/05/27 01:51:57;;;;;;;16.70;9.60;;;;;;;9.51;69.32;98568.11;106753;1277;22593;-78
2023/05/27 01:54:25;;;;;;;19.70;9.80;;;;;;;9.52;69.68;98568.91;106906;1277;22531;-79
2023/05/27 01:56:53;;;;;;;19.70;8.40;;;;;;;9.51;69.38;98564.45;106911;1277;22655;-80
2023/05/27 01:59:21;;;;;;;17.10;9.80;;;;;;;9.49;69.68;98567.09;106791;1277;24455;-80
2023/05/27 02:01:49;;;;;;;19.10;9.20;;;;;;;9.46;69.53;98571.73;107170;1263;22572;-82
2023/05/27 02:04:18;;;;;;;16.30;9.30;;;;;;;9.42;69.46;98575.24;107007;1277;22741;-82
2023/05/27 02:06:46;;;;;;;19.30;10.30;;;;;;;9.39;69.64;98575.67;106886;1278;22524;-82
2023/05/27 02:09:16;;;;;;;17.40;9.20;;;;;;;9.35;69.45;98575.32;106714;1277;22580;-81
2023/05/27 02:11:44;;;;;;;16.20;8.60;;;;;;;9.30;69.35;98575.92;106836;1277;22527;-81
2023/05/27 02:14:13;;;;;;;16.90;9.20;;;;;;;9.28;69.33;98581.80;106836;1277;25348;-81
2023/05/27 02:16:42;;;;;;;19.70;10.60;;;;;;;9.27;69.71;98581.59;106878;1277;22580;-81
2023/05/27 02:19:10;;;;;;;18.50;8.20;;;;;;;9.27;69.66;98584.70;106909;1277;24235;-82
2023/05/27 02:21:39;;;;;;;18.50;9.00;;;;;;;9.29;70.01;98585.34;106847;1278;25303;-82
2023/05/27 02:24:07;;;;;;;16.60;9.60;;;;;;;9.27;70.26;98585.94;106897;1277;25405;-81
2023/05/27 02:26:35;;;;;;;17.80;9.80;;;;;;;9.23;70.21;98585.62;106972;1277;22533;-81
2023/05/27 02:29:03;;;;;;;18.00;10.20;;;;;;;9.16;70.23;98589.89;106890;1272;22790;-81
2023/05/27 02:31:31;;;;;;;18.80;9.60;;;;;;;9.11;70.01;98590.54;106945;1277;22541;-81
2023/05/27 02:33:59;;;;;;;17.80;9.50;;;;;;;9.05;70.19;98593.14;106701;1277;22692;-82
2023/05/27 02:36:27;;;;;;;15.30;9.80;;;;;;;8.98;70.45;98597.83;106677;1277;22549;-82
2023/05/27 02:38:56;;;;;;;20.10;9.70;;;;;;;8.92;70.48;98605.52;106718;1277;24251;-82
2023/05/27 02:41:24;;;;;;;16.70;9.70;;;;;;;8.87;70.53;98611.27;106763;1277;22656;-82
2023/05/27 02:43:52;;;;;;;16.80;10.00;;;;;;;8.80;71.54;98611.98;106833;1277;25626;-82
2023/05/27 02:46:20;;;;;;;16.50;10.10;;;;;;;8.71;71.78;98617.35;106770;1277;22801;-82
2023/05/27 02:48:48;;;;;;;16.50;9.40;;;;;;;8.55;72.32;98617.40;106801;1277;23173;-82
2023/05/27 02:51:16;;;;;;;14.70;8.80;;;;;;;8.41;73.42;98620.54;106739;1260;22596;-82
2023/05/27 02:53:44;;;;;;;19.60;9.90;;;;;;;8.33;72.82;98624.86;106854;1277;22544;-82
2023/05/27 02:56:12;;;;;;;17.00;8.10;;;;;;;8.26;73.04;98630.16;106738;1277;24233;-82
2023/05/27 02:58:40;;;;;;;21.60;9.00;;;;;;;8.22;72.60;98632.67;106828;1277;24340;-83
2023/05/27 03:01:08;;;;;;;17.50;8.60;;;;;;;8.25;72.42;98632.15;106777;1277;25392;-82
2023/05/27 03:03:36;;;;;;;16.70;8.50;;;;;;;8.27;73.45;98632.21;106845;1277;24345;-82
2023/05/27 03:06:05;;;;;;;13.40;8.40;;;;;;;8.23;73.97;98636.86;106847;1277;22532;-83
2023/05/27 03:08:33;;;;;;;17.40;8.40;;;;;;;8.18;73.72;98641.46;106945;1277;26004;-82
2023/05/27 03:11:01;;;;;;;16.20;8.70;;;;;;;8.10;74.12;98639.61;106980;1277;24252;-82
2023/05/27 03:13:29;;;;;;;19.60;8.80;;;;;;;7.99;74.17;98642.16;106942;1277;25388;-81
2023/05/27 03:15:58;;;;;;;15.50;8.20;;;;;;;7.92;73.99;98645.95;106858;1278;22787;-81
2023/05/27 03:18:27;;;;;;;14.10;8.10;;;;;;;7.92;73.81;98644.71;106872;1277;22524;-81
2023/05/27 03:20:55;;;;;;;16.70;8.60;;;;;;;7.98;73.82;98643.34;106855;1277;24228;-81
2023/05/27 03:23:23;;;;;;;17.00;9.20;;;;;;;8.04;73.94;98644.43;106864;1277;22529;-81
2023/05/27 03:25:51;;;;;;;17.90;8.20;;;;;;;8.10;73.62;98647.63;106830;1277;22551;-82
2023/05/27 03:28:19;;;;;;;15.80;8.50;;;;;;;8.12;73.56;98652.73;106751;1274;24255;-82
2023/05/27 03:30:48;;;;;;;17.40;9.10;;;;;;;8.08;73.82;98657.60;106930;1276;22520;-82
2023/05/27 03:33:29;;;;;;;17.80;8.40;;;;;;;7.99;74.20;98661.86;107015;1277;22630;-83
2023/05/27 03:35:57;;;;;;;15.10;8.20;;;;;;;8.00;74.21;98662.19;106824;1278;22648;-83
2023/05/27 03:38:56;;;;;;;15.20;8.50;;;;;;;8.06;74.15;98658.98;106890;1277;25323;-83
2023/05/27 03:41:25;;;;;;;12.60;7.90;;;;;;;8.09;74.06;98663.94;106965;1277;22570;-81
2023/05/27 03:43:54;;;;;;;14.50;8.10;;;;;;;8.12;74.89;98666.80;106869;1272;24347;-83
2023/05/27 03:46:23;;;;;;;15.40;8.60;;;;;;;8.00;75.69;98674.42;106924;1277;22650;-81
2023/05/27 03:48:51;;;;;;;23.60;10.20;;;;;;;7.96;75.45;98676.08;106902;1273;22528;-81
2023/05/27 03:51:20;;;;;;;17.50;10.30;;;;;;;8.02;75.37;98670.94;106866;1277;22518;-82
2023/05/27 03:53:48;;;;;;;16.30;8.80;;;;;;;8.03;75.00;98670.02;106943;1270;22572;-81
2023/05/27 03:56:17;;;;;;;18.50;10.60;;;;;;;8.16;75.15;98680.39;106841;1277;22594;-81
2023/05/27 03:58:45;;;;;;;20.30;9.30;;;;;;;8.29;74.93;98675.98;106713;1274;25303;-81
2023/05/27 04:01:13;;;;;;;18.50;8.80;;;;;;;8.38;75.51;98683.33;106681;1277;23314;-81
2023/05/27 04:03:41;;;;;;;19.40;8.50;;;;;;;8.47;75.41;98686.46;106782;1278;22520;-81
2023/05/27 04:06:10;;;;;;;22.30;8.60;;;;;;;8.55;75.49;98691.76;106785;1278;23162;-81
2023/05/27 04:08:40;;;;;;;18.60;9.10;;;;;;;8.65;76.52;98692.23;106790;1277;25265;-82
2023/05/27 04:11:15;;;;;;;16.80;7.60;;;;;;;8.70;76.56;98694.25;106793;1277;24051;-81
2023/05/27 04:13:44;;;;;;;20.30;9.50;;;;;;;8.76;76.48;98689.15;106796;1277;22737;-81
2023/05/27 04:16:13;;;;;;;16.10;8.20;;;;;;;8.80;77.00;98694.36;106801;1277;22578;-81
2023/05/27 04:18:48;;;;;;;17.10;7.60;;;;;;;8.83;77.63;98695.92;106695;1276;23000;-81
2023/05/27 04:21:17;;;;;;;15.70;8.40;;;;;;;8.92;77.90;98698.67;106713;1277;22563;-83
2023/05/27 04:23:45;;;;;;;17.00;9.10;;;;;;;8.98;77.63;98696.05;106879;1277;22563;-83
2023/05/27 04:26:14;;;;;;;17.60;9.00;;;;;;;9.02;78.14;98694.80;106849;1276;22526;-83
2023/05/27 04:28:46;;;;;;;18.60;8.30;;;;;;;9.03;77.63;98692.92;106807;1277;25391;-81
2023/05/27 04:31:15;;;;;;;17.90;7.90;;;;;;;9.09;77.57;98691.52;106717;1277;22845;-83
2023/05/27 04:33:47;;;;;;;15.30;8.30;;;;;;;9.18;77.44;98697.71;106740;1277;22994;-81
2023/05/27 04:36:17;;;;;;;16.40;8.40;;;;;;;9.30;78.00;98701.30;106816;1277;24531;-82
2023/05/27 04:39:05;;;;;;;18.90;9.40;;;;;;;9.38;78.20;98704.69;106851;1278;22524;-82
2023/05/27 04:41:34;;;;;;;19.10;8.80;;;;;;;9.45;77.74;98705.11;106785;1277;22688;-82
2023/05/27 04:44:14;;;;;;;29.80;9.30;;;;;;;9.55;78.05;98707.52;106748;1277;22601;-82
2023/05/27 04:46:44;;;;;;;18.50;9.10;;;;;;;9.61;78.19;98710.19;106765;1277;25384;-82
2023/05/27 04:49:12;;;;;;;17.90;8.00;;;;;;;9.67;78.20;98710.34;106692;1278;24364;-82
2023/05/27 04:51:41;;;;;;;16.80;8.40;;;;;;;9.73;78.08;98713.50;106707;1277;22529;-83
2023/05/27 04:54:09;;;;;;;16.00;8.40;;;;;;;9.80;77.84;98716.92;106857;1277;24193;-82
2023/05/27 04:56:38;;;;;;;15.90;8.80;;;;;;;9.92;77.53;98715.00;106773;1277;22551;-82
2023/05/27 04:59:08;;;;;;;14.50;7.80;;;;;;;10.04;77.58;98712.83;106747;1277;22545;-81
2023/05/27 05:01:59;;;;;;;16.10;8.80;;;;;;;10.12;77.19;98706.11;106851;1277;22645;-81
2023/05/27 05:04:33;;;;;;;14.90;7.60;;;;;;;10.24;77.12;98710.91;106786;1277;22774;-82
2023/05/27 05:07:03;;;;;;;19.00;7.80;;;;;;;10.36;77.29;98707.54;106856;1277;22808;-83
2023/05/27 05:09:32;;;;;;;19.50;10.10;;;;;;;10.46;77.68;98707.38;106846;1277;22911;-83
2023/05/27 05:12:07;;;;;;;14.30;8.40;;;;;;;10.52;77.31;98713.59;106914;1277;22564;-82
2023/05/27 05:14:38;;;;;;;16.60;7.80;;;;;;;10.57;77.10;98713.30;106956;1270;22648;-83
2023/05/27 05:17:06;;;;;;;15.00;8.10;;;;;;;10.62;76.79;98711.33;106925;1277;25643;-83
2023/05/27 05:19:34;;;;;;;16.90;7.90;;;;;;;10.64;76.69;98709.86;106908;1277;22591;-81
2023/05/27 05:22:03;;;;;;;16.90;7.80;;;;;;;10.70;76.48;98714.35;106949;1277;22545;-81
2023/05/27 05:24:31;;;;;;;15.50;7.60;;;;;;;10.79;76.47;98712.52;106914;1277;25259;-83
2023/05/27 05:26:59;;;;;;;17.10;8.00;;;;;;;10.94;76.60;98717.33;106941;1277;24056;-83
2023/05/27 05:29:27;;;;;;;17.20;8.00;;;;;;;11.10;76.63;98714.66;106786;1277;22606;-82
2023/05/27 05:31:55;;;;;;;17.00;8.20;;;;;;;11.23;76.41;98713.36;106755;1277;25838;-82
2023/05/27 05:34:23;;;;;;;18.40;8.70;;;;;;;11.33;76.32;98711.66;106810;1277;22833;-82
2023/05/27 05:36:51;;;;;;;16.30;8.20;;;;;;;11.43;76.23;98708.40;106904;1277;22801;-82
2023/05/27 05:39:22;;;;;;;17.00;9.60;;;;;;;11.56;76.12;98708.60;106873;1277;22537;-82
2023/05/27 05:41:57;;;;;;;15.70;8.50;;;;;;;11.71;75.93;98710.87;106831;1277;24269;-82
2023/05/27 05:44:26;;;;;;;13.90;8.30;;;;;;;11.85;75.93;98713.50;106952;1277;22624;-82
2023/05/27 05:46:54;;;;;;;18.30;9.00;;;;;;;11.95;75.57;98719.66;106813;1277;24423;-84
2023/05/27 05:49:23;;;;;;;19.70;8.90;;;;;;;12.02;74.94;98717.10;106891;1269;22528;-84
2023/05/27 05:51:52;;;;;;;20.60;9.50;;;;;;;12.04;74.72;98724.48;106805;1273;121638;-82
2023/05/27 05:54:20;;;;;;;16.80;8.50;;;;;;;12.08;74.29;98724.97;106839;1277;25649;-82
2023/05/27 05:56:53;;;;;;;18.00;8.20;;;;;;;12.14;74.67;98722.41;106818;1277;22536;-83
2023/05/27 05:59:22;;;;;;;16.70;8.10;;;;;;;12.22;74.34;98721.45;106865;1277;24328;-82
2023/05/27 06:01:50;;;;;;;16.50;8.30;;;;;;;12.32;73.60;98719.66;106865;1277;22621;-81
2023/05/27 06:04:19;;;;;;;21.70;8.60;;;;;;;12.37;73.34;98716.13;106916;1277;22533;-83
2023/05/27 06:06:47;;;;;;;12.40;7.00;;;;;;;12.43;73.11;98718.65;106831;1277;23922;-83
2023/05/27 06:09:22;;;;;;;;;;;;;;;12.50;72.95;98714.77;106888;1277;22610;-82
2023/05/27 06:11:51;;;;;;;19.80;7.60;;;;;;;12.56;72.77;98713.39;106808;1278;22584;-83
2023/05/27 06:14:19;;;;;;;22.10;8.20;;;;;;;12.63;72.48;98717.73;106801;1270;25535;-84
2023/05/27 06:16:47;;;;;;;19.50;8.40;;;;;;;12.72;72.59;98715.23;106822;1278;24189;-81
2023/05/27 06:19:16;;;;;;;14.90;7.10;;;;;;;12.83;72.59;98712.63;106739;1278;22650;-86
2023/05/27 06:21:45;;;;;;;16.90;7.70;;;;;;;12.94;72.43;98712.73;106813;1278;22707;-85
2023/05/27 06:24:32;;;;;;;17.40;7.50;;;;;;;13.11;71.90;98717.71;106876;1277;24360;-86
2023/05/27 06:27:16;;;;;;;19.80;8.20;;;;;;;13.22;71.33;98718.24;106873;1277;22576;-85
2023/05/27 06:29:46;;;;;;;14.50;6.80;;;;;;;13.36;71.79;98719.30;106909;1277;23581;-85
2023/05/27 06:32:15;;;;;;;16.40;7.70;;;;;;;13.53;71.54;98721.92;106913;1277;22738;-85
2023/05/27 06:34:43;;;;;;;17.50;7.50;;;;;;;13.67;71.21;98722.36;106974;1277;22546;-85
2023/05/27 06:37:12;;;;;;;18.10;7.70;;;;;;;13.80;70.45;98722.17;107038;1277;24628;-85
2023/05/27 06:39:41;;;;;;;14.10;6.70;;;;;;;13.85;69.88;98721.16;107500;1278;22882;-80
2023/05/27 06:42:10;;;;;;;17.20;7.30;;;;;;;13.93;70.02;98722.70;107376;1278;22647;-82
2023/05/27 06:44:47;;;;;;;13.80;6.70;;;;;;;14.05;69.16;98726.79;106810;1278;25342;-81
2023/05/27 06:47:25;;;;;;;11.60;6.80;;;;;;;14.18;69.30;98718.81;106911;1278;22545;-83
2023/05/27 06:49:53;;;;;;;14.10;6.10;;;;;;;14.29;68.30;98725.02;106585;1278;25447;-83
2023/05/27 06:52:21;;;;;;;14.70;6.60;;;;;;;14.45;68.73;98729.08;106790;1278;22676;-82
2023/05/27 06:55:08;;;;;;;16.00;6.80;;;;;;;14.59;68.63;98725.29;106902;1278;22615;-81
2023/05/27 06:57:55;;;;;;;17.30;6.50;;;;;;;14.73;68.33;98720.33;106823;1278;25284;-78
2023/05/27 07:00:43;;;;;;;14.30;6.60;;;;;;;14.85;67.50;98721.23;106800;1278;22533;-78
2023/05/27 07:03:51;;;;;;;15.40;7.10;;;;;;;14.89;67.50;98719.08;106779;1278;24271;-80
2023/05/27 07:06:26;;;;;;;17.00;6.40;;;;;;;14.95;65.93;98719.92;107044;1275;22544;-79
2023/05/27 07:08:55;;;;;;;14.00;7.20;;;;;;;15.04;66.08;98715.70;107308;1277;22561;-79
2023/05/27 07:11:32;;;;;;;15.30;6.10;;;;;;;15.14;65.09;98715.66;106908;1277;22576;-79
2023/05/27 07:14:03;;;;;;;15.60;6.60;;;;;;;15.18;62.02;98716.87;106936;1254;22593;-78
2023/05/27 07:16:33;;;;;;;14.10;6.10;;;;;;;15.18;63.38;98717.92;106792;1277;22649;-79
2023/05/27 07:19:02;;;;;;;15.10;6.30;;;;;;;15.29;63.33;98719.66;106781;1278;22778;-82
2023/05/27 07:21:33;;;;;;;16.60;7.70;;;;;;;15.37;61.31;98721.35;106801;1277;22640;-81
2023/05/27 07:24:03;;;;;;;11.60;6.20;;;;;;;15.43;62.55;98719.30;106805;1277;22613;-80
2023/05/27 07:26:33;;;;;;;16.40;6.30;;;;;;;15.73;63.58;98719.20;106773;1277;24199;-81
2023/05/27 07:29:02;;;;;;;13.00;6.40;;;;;;;16.09;61.88;98720.14;106773;1277;24326;-80
2023/05/27 07:31:56;;;;;;;11.50;5.70;;;;;;;16.11;60.75;98720.20;106922;1277;22676;-81
2023/05/27 07:34:26;;;;;;;17.80;7.20;;;;;;;16.20;57.45;98724.19;106897;1277;22641;-83
2023/05/27 07:36:55;;;;;;;16.00;6.30;;;;;;;16.14;55.25;98722.83;106812;1277;22575;-84
2023/05/27 07:39:23;;;;;;;15.20;6.70;;;;;;;16.03;55.19;98719.81;106901;1277;24272;-83
2023/05/27 07:41:52;;;;;;;20.30;8.60;;;;;;;15.94;55.83;98719.42;106860;1253;22535;-83
2023/05/27 07:44:20;;;;;;;13.20;5.50;;;;;;;15.99;55.97;98719.00;107093;1270;22528;-79
2023/05/27 07:46:48;;;;;;;16.60;6.90;;;;;;;16.04;55.77;98722.98;106743;1277;22598;-82
2023/05/27 07:49:17;;;;;;;11.90;5.90;;;;;;;16.16;57.55;98725.04;107257;1277;22787;-82
2023/05/27 07:52:08;;;;;;;17.00;7.70;;;;;;;16.40;58.27;98726.38;106644;1277;22636;-83
2023/05/27 07:54:36;;;;;;;16.80;6.50;;;;;;;16.59;58.41;98726.64;106871;1277;25614;-82
2023/05/27 07:57:22;;;;;;;12.70;6.10;;;;;;;16.78;58.67;98720.92;106814;1277;22640;-85
2023/05/27 07:59:51;;;;;;;14.70;6.00;;;;;;;17.02;56.90;98717.58;106757;1277;25326;-79
2023/05/27 08:02:21;;;;;;;19.50;12.10;;;;;;;16.96;53.98;98714.86;107127;1277;24586;-78
2023/05/27 08:04:51;;;;;;;13.80;7.10;;;;;;;16.99;55.89;98721.41;107028;1270;22532;-78
2023/05/27 08:07:24;;;;;;;14.80;6.30;;;;;;;17.24;54.44;98719.32;106974;1277;23151;-79
2023/05/27 08:10:08;;;;;;;11.70;5.90;;;;;;;17.20;52.59;98722.88;107012;1277;22561;-82
2023/05/27 08:12:48;;;;;;;16.70;6.70;;;;;;;17.29;55.06;98714.27;106878;1277;22533;-84
2023/05/27 08:15:26;;;;;;;14.20;6.10;;;;;;;17.39;53.57;98714.08;106894;1277;23120;-84
2023/05/27 08:18:15;;;;;;;15.20;6.60;;;;;;;17.22;53.29;98713.27;106894;1272;25393;-84
2023/05/27 08:20:59;;;;;;;15.50;6.30;;;;;;;17.26;51.93;98709.92;106919;1277;22532;-85
2023/05/27 08:23:32;;;;;;;15.70;6.40;;;;;;;17.12;51.93;98703.96;107009;1278;22524;-82
2023/05/27 08:26:26;;;;;;;51.90;9.50;;;;;;;17.18;53.58;98701.13;107290;1270;22533;-83
2023/05/27 08:28:57;;;;;;;16.60;6.60;;;;;;;17.36;52.62;98699.91;107058;1278;22645;-85
2023/05/27 08:31:35;;;;;;;18.70;6.50;;;;;;;17.34;49.32;98696.88;106880;1270;22573;-83
2023/05/27 08:34:03;;;;;;;17.70;6.50;;;;;;;17.17;47.60;98701.92;106806;1277;22681;-84
2023/05/27 08:36:34;;;;;;;17.70;7.70;;;;;;;16.99;47.95;98700.02;106993;1277;22524;-85
2023/05/27 08:39:02;;;;;;;16.30;6.30;;;;;;;16.72;48.37;98702.69;106926;1277;23573;-83
2023/05/27 08:41:36;;;;;;;12.10;7.60;;;;;;;16.70;49.88;98701.38;107045;1273;22598;-83
2023/05/27 08:44:05;;;;;;;12.30;6.60;;;;;;;16.92;49.45;98699.18;106959;1277;22797;-82
2023/05/27 08:46:57;;;;;;;15.20;7.40;;;;;;;16.97;48.90;98698.45;107021;1277;22632;-83
2023/05/27 08:49:25;;;;;;;16.30;7.40;;;;;;;17.14;48.72;98694.85;106901;1277;22735;-84
2023/05/27 08:51:56;;;;;;;13.50;6.60;;;;;;;17.32;48.55;98685.27;106929;1277;25363;-77
2023/05/27 08:54:26;;;;;;;12.30;6.00;;;;;;;17.25;46.41;98690.02;106945;1277;22543;-85
2023/05/27 08:56:59;;;;;;;14.00;6.60;;;;;;;17.26;46.32;98692.97;106881;1277;22560;-86
2023/05/27 08:59:28;;;;;;;16.90;6.70;;;;;;;17.27;44.66;98690.19;106817;1277;24288;-85
2023/05/27 09:01:57;;;;;;;16.40;6.20;;;;;;;17.21;46.14;98684.52;106797;1277;26007;-83
2023/05/27 09:04:26;;;;;;;13.90;5.90;;;;;;;17.47;47.15;98680.62;106780;1277;25332;-84
2023/05/27 09:06:54;;;;;;;16.20;6.80;;;;;;;17.76;47.30;98676.86;106889;1277;24451;-85
2023/05/27 09:09:22;;;;;;;15.70;6.90;;;;;;;18.02;46.87;98670.19;106826;1277;22519;-84
2023/05/27 09:11:50;;;;;;;12.00;6.10;;;;;;;18.17;46.53;98668.86;106943;1277;25561;-84
2023/05/27 09:14:22;;;;;;;13.90;6.20;;;;;;;18.15;45.46;98671.30;106857;1276;24237;-85
2023/05/27 09:16:50;;;;;;;15.30;5.90;;;;;;;17.96;45.83;98671.30;106854;1277;23894;-85
2023/05/27 09:19:19;;;;;;;16.90;7.40;;;;;;;17.80;44.82;98673.22;106890;1277;25230;-86
2023/05/27 09:21:51;;;;;;;20.40;6.90;;;;;;;17.67;44.71;98665.65;106882;1276;22664;-82
2023/05/27 09:24:22;;;;;;;21.30;7.40;;;;;;;17.71;45.92;98667.37;106978;1277;22811;-84
2023/05/27 09:26:52;;;;;;;15.70;6.80;;;;;;;17.89;45.76;98668.29;106897;1277;22744;-85
2023/05/27 09:29:20;;;;;;;13.60;6.10;;;;;;;18.04;46.17;98663.52;106871;1277;24338;-84
2023/05/27 09:31:48;;;;;;;15.40;6.80;;;;;;;18.28;44.70;98660.20;106844;1277;22528;-84
2023/05/27 09:34:17;;;;;;;12.90;6.70;;;;;;;18.28;44.49;98659.52;106883;1277;25287;-83
2023/05/27 09:36:47;;;;;;;13.90;6.00;;;;;;;18.41;45.33;98657.84;106789;1277;25419;-83
2023/05/27 09:39:20;;;;;;;15.80;6.00;;;;;;;18.54;44.29;98653.96;106894;1276;25322;-84
2023/05/27 09:41:55;;;;;;;15.20;6.50;;;;;;;18.68;44.99;98651.45;106857;1277;24215;-84
2023/05/27 09:44:37;;;;;;;11.60;5.60;;;;;;;18.86;44.90;98652.54;106832;1276;24404;-83
2023/05/27 09:47:05;;;;;;;10.00;5.50;;;;;;;19.05;43.76;98648.92;106820;1276;22528;-83
2023/05/27 09:49:35;;;;;;;12.00;5.90;;;;;;;18.87;41.78;98653.48;106865;1276;23023;-84
2023/05/27 09:52:06;;;;;;;14.50;6.80;;;;;;;18.64;42.29;98652.54;106852;1277;22523;-83
2023/05/27 09:54:36;;;;;;;11.60;5.50;;;;;;;18.68;43.27;98650.19;106871;1277;25450;-83
2023/05/27 09:57:06;;;;;;;13.50;5.60;;;;;;;18.77;42.25;98650.56;106893;1277;22535;-84
2023/05/27 09:59:34;;;;;;;15.70;6.10;;;;;;;18.58;40.03;98647.43;106890;1276;22964;-84
2023/05/27 10:02:04;;;;;;;11.80;6.30;;;;;;;18.40;40.53;98645.86;106969;1277;22788;-84
2023/05/27 10:04:33;;;;;;;12.10;5.80;;;;;;;18.30;40.76;98648.05;106980;1277;22636;-83
2023/05/27 10:07:02;;;;;;;16.30;6.40;;;;;;;18.35;41.33;98650.91;106926;1277;22545;-85
2023/05/27 10:09:31;;;;;;;14.80;6.00;;;;;;;18.43;41.45;98650.60;107002;1277;22539;-84
2023/05/27 10:11:59;;;;;;;10.50;5.90;;;;;;;18.37;39.72;98646.30;106913;1277;22532;-83
2023/05/27 10:14:27;;;;;;;15.70;6.30;;;;;;;18.34;40.61;98643.25;106980;1277;24271;-83
2023/05/27 10:16:58;;;;;;;14.60;6.70;;;;;;;18.45;39.81;98644.27;106979;1277;24387;-83
2023/05/27 10:19:26;;;;;;;9.50;5.40;;;;;;;18.35;39.97;98645.78;106985;1277;25337;-84
2023/05/27 10:21:54;;;;;;;13.10;6.90;;;;;;;18.36;39.57;98644.10;106842;1277;22647;-83
2023/05/27 10:24:32;;;;;;;9.50;5.70;;;;;;;18.45;39.13;98643.02;106925;1277;24383;-84
2023/05/27 10:27:02;;;;;;;13.60;5.70;;;;;;;18.59;40.12;98638.16;106889;1277;24615;-85
2023/05/27 10:29:38;;;;;;;12.90;6.20;;;;;;;18.75;39.56;98635.13;107015;1277;24238;-84
2023/05/27 10:32:06;;;;;;;11.20;5.90;;;;;;;18.83;39.44;98632.07;106867;1277;22529;-83
2023/05/27 10:34:42;;;;;;;8.70;5.00;;;;;;;18.90;39.62;98640.27;106936;1277;25638;-84
2023/05/27 10:37:20;;;;;;;9.80;5.70;;;;;;;19.05;40.33;98638.31;106886;1277;23145;-84
2023/05/27 10:39:56;;;;;;;11.30;5.70;;;;;;;19.25;39.17;98639.00;106939;1277;24288;-85
2023/05/27 10:42:24;;;;;;;9.50;5.40;;;;;;;19.41;39.83;98635.69;107076;1277;24302;-86
2023/05/27 10:45:07;;;;;;;11.50;5.30;;;;;;;19.56;38.81;98635.09;107012;1277;24340;-84
2023/05/27 10:47:36;;;;;;;12.90;5.60;;;;;;;19.67;38.83;98633.23;107016;1277;24364;-83
2023/05/27 10:50:12;;;;;;;11.70;5.20;;;;;;;19.80;38.65;98628.59;107019;1277;22804;-85
2023/05/27 10:52:41;;;;;;;11.50;5.70;;;;;;;19.97;38.90;98626.59;106935;1277;25265;-85
2023/05/27 10:55:09;;;;;;;10.80;6.10;;;;;;;20.06;36.71;98626.27;106816;1277;22528;-85
2023/05/27 10:57:38;;;;;;;15.60;5.90;;;;;;;19.85;34.65;98630.52;106893;1277;22740;-85
2023/05/27 11:00:08;;;;;;;10.30;5.20;;;;;;;19.79;37.06;98629.41;106928;1277;22949;-85
2023/05/27 11:02:39;;;;;;;12.60;5.10;;;;;;;20.04;37.20;98625.81;106940;1277;22583;-84
2023/05/27 11:05:13;;;;;;;10.10;4.60;;;;;;;20.24;37.50;98626.89;106807;1277;25268;-85
2023/05/27 11:07:41;;;;;;;11.00;5.00;;;;;;;20.54;37.77;98626.31;106946;1277;22513;-83
2023/05/27 11:10:10;;;;;;;9.90;4.90;;;;;;;20.69;36.18;98627.30;106891;1277;23380;-85
2023/05/27 11:12:44;;;;;;;9.90;5.20;;;;;;;20.86;34.71;98631.14;106917;1277;23139;-85
2023/05/27 11:15:12;;;;;;;10.80;5.20;;;;;;;20.87;34.14;98627.43;106907;1277;24195;-84
2023/05/27 11:17:40;;;;;;;11.60;5.80;;;;;;;20.77;32.29;98630.42;106903;1269;22527;-84
2023/05/27 11:20:10;;;;;;;8.10;4.90;;;;;;;20.48;32.08;98631.77;106780;1277;22607;-84
2023/05/27 11:22:38;;;;;;;9.30;5.10;;;;;;;20.37;32.50;98624.17;107007;1277;22626;-84
2023/05/27 11:25:09;;;;;;;15.50;5.10;;;;;;;20.46;33.70;98619.56;106922;1277;25492;-84
2023/05/27 11:27:38;;;;;;;8.70;5.00;;;;;;;20.48;32.41;98623.52;106932;1277;22640;-84
2023/05/27 11:30:11;;;;;;;9.20;5.20;;;;;;;20.53;31.50;98618.07;106912;1277;24042;-83
2023/05/27 11:32:42;;;;;;;10.40;4.80;;;;;;;20.47;31.06;98617.10;106991;1277;22537;-83
2023/05/27 11:35:17;;;;;;;8.30;4.90;;;;;;;20.40;31.57;98618.09;106726;1277;22543;-85
2023/05/27 11:37:49;;;;;;;7.70;4.90;;;;;;;20.38;31.11;98618.40;106966;1277;22535;-83
2023/05/27 11:40:17;;;;;;;9.00;4.70;;;;;;;20.38;30.75;98620.61;106921;1277;22587;-85